VTK601 UUEE-URMM
Flight info
| Callsign | VTK601 |
|---|---|
| Flight time | N/A |
| Altitude | 39000 |
| Route | TOGMO3J TOGMO M56 ABAGI B105 NIMTA/K0865F380 B105 NATIT/K0861F350 W21 WGD/K0859F380 G481 TONGI/K0861F390 G481 ELI/K0857F380 G481 LARIN LARIN5B |
| Aircraft | B737/M-SDE2E3FGHIRWXY/LB1 |
Departure
| Time | 2026-04-30 14:32 |
|---|---|
| Airport | Sheremetyevo International Airport (UUEE) |
Arrival
| Time | N/A |
|---|---|
| Airport | Mineralnye Vody Airport (URMM) |
| Time | Latitude | Longitude | Altitude | Speed | Heading |
|---|---|---|---|---|---|
| 2026-04-30 14:19 | 55.97926 | 37.42128 | 638 ft | 0 kts | 255° |
| 2026-04-30 14:29 | 55.97920 | 37.42093 | 642 ft | 7 kts | 251° |
| 2026-04-30 14:29 | 55.97748 | 37.42110 | 641 ft | 18 kts | 165° |
| 2026-04-30 14:30 | 55.97757 | 37.42682 | 643 ft | 17 kts | 84° |
| 2026-04-30 14:31 | 55.97595 | 37.42759 | 639 ft | 16 kts | 248° |
| 2026-04-30 14:31 | 55.97416 | 37.41578 | 641 ft | 115 kts | 255° |
| 2026-04-30 14:31 | 55.97166 | 37.39850 | 716 ft | 167 kts | 257° |
| 2026-04-30 14:32 | 55.96467 | 37.35398 | 2097 ft | 196 kts | 255° |
| 2026-04-30 14:32 | 55.96061 | 37.33036 | 2821 ft | 208 kts | 255° |
| 2026-04-30 14:32 | 55.95616 | 37.30462 | 3551 ft | 221 kts | 255° |
| 2026-04-30 14:33 | 55.95163 | 37.27835 | 4567 ft | 223 kts | 255° |
| 2026-04-30 14:33 | 55.94255 | 37.22506 | 6536 ft | 227 kts | 255° |
| 2026-04-30 14:33 | 55.93791 | 37.19787 | 7015 ft | 231 kts | 255° |
| 2026-04-30 14:34 | 55.93315 | 37.17040 | 7197 ft | 233 kts | 255° |
| 2026-04-30 14:34 | 55.92831 | 37.14264 | 7205 ft | 234 kts | 255° |
| 2026-04-30 14:34 | 55.92342 | 37.11464 | 7229 ft | 246 kts | 255° |
| 2026-04-30 14:34 | 55.91815 | 37.08419 | 7236 ft | 264 kts | 255° |
| 2026-04-30 14:35 | 55.90717 | 37.02065 | 7419 ft | 272 kts | 255° |
| 2026-04-30 14:35 | 55.90161 | 36.98840 | 8075 ft | 273 kts | 255° |
| 2026-04-30 14:35 | 55.89599 | 36.95588 | 8184 ft | 275 kts | 255° |
| 2026-04-30 14:36 | 55.89038 | 36.92350 | 8203 ft | 273 kts | 255° |
| 2026-04-30 14:36 | 55.88479 | 36.89135 | 8204 ft | 270 kts | 255° |
| 2026-04-30 14:36 | 55.87933 | 36.85957 | 8201 ft | 267 kts | 254° |
| 2026-04-30 14:36 | 55.87369 | 36.82797 | 8221 ft | 267 kts | 253° |
| 2026-04-30 14:37 | 55.86798 | 36.79671 | 8204 ft | 263 kts | 254° |
| 2026-04-30 14:37 | 55.86253 | 36.76537 | 8202 ft | 265 kts | 255° |
| 2026-04-30 14:37 | 55.85712 | 36.73384 | 8255 ft | 270 kts | 255° |
| 2026-04-30 14:37 | 55.85158 | 36.70156 | 9005 ft | 274 kts | 255° |
| 2026-04-30 14:38 | 55.84601 | 36.66917 | 10083 ft | 275 kts | 255° |
| 2026-04-30 14:38 | 55.84030 | 36.63634 | 10930 ft | 280 kts | 255° |
| 2026-04-30 14:38 | 55.83443 | 36.60290 | 11767 ft | 286 kts | 255° |
| 2026-04-30 14:38 | 55.82840 | 36.56888 | 12607 ft | 292 kts | 255° |
| 2026-04-30 14:39 | 55.82222 | 36.53427 | 13081 ft | 295 kts | 255° |
| 2026-04-30 14:39 | 55.81591 | 36.49917 | 13207 ft | 301 kts | 255° |
| 2026-04-30 14:39 | 55.80953 | 36.46376 | 13212 ft | 300 kts | 255° |
| 2026-04-30 14:40 | 55.79683 | 36.39375 | 13212 ft | 297 kts | 255° |
| 2026-04-30 14:40 | 55.79046 | 36.35886 | 13223 ft | 297 kts | 255° |
| 2026-04-30 14:40 | 55.78406 | 36.32386 | 13228 ft | 298 kts | 255° |
| 2026-04-30 14:40 | 55.77765 | 36.28885 | 13231 ft | 299 kts | 255° |
| 2026-04-30 14:41 | 55.77122 | 36.25373 | 13229 ft | 299 kts | 255° |
| 2026-04-30 14:41 | 55.76478 | 36.21856 | 13226 ft | 300 kts | 255° |
| 2026-04-30 14:41 | 55.75833 | 36.18336 | 13225 ft | 300 kts | 255° |
| 2026-04-30 14:41 | 55.75196 | 36.14862 | 13228 ft | 299 kts | 255° |
| 2026-04-30 14:42 | 55.74544 | 36.11306 | 13222 ft | 299 kts | 255° |
| 2026-04-30 14:42 | 55.73908 | 36.07848 | 13221 ft | 298 kts | 255° |
| 2026-04-30 14:42 | 55.73265 | 36.04351 | 13226 ft | 298 kts | 255° |
| 2026-04-30 14:42 | 55.72621 | 36.00859 | 13226 ft | 298 kts | 255° |
| 2026-04-30 14:43 | 55.71977 | 35.97361 | 13224 ft | 298 kts | 255° |
| 2026-04-30 14:43 | 55.71333 | 35.93865 | 13226 ft | 298 kts | 255° |
| 2026-04-30 14:43 | 55.70689 | 35.90375 | 13229 ft | 298 kts | 255° |
| 2026-04-30 14:43 | 55.70041 | 35.86882 | 13213 ft | 298 kts | 255° |
| 2026-04-30 14:44 | 55.69386 | 35.83394 | 13223 ft | 298 kts | 255° |
| 2026-04-30 14:44 | 55.68727 | 35.79912 | 13222 ft | 298 kts | 255° |
| 2026-04-30 14:44 | 55.68021 | 35.76448 | 13220 ft | 301 kts | 246° |
| 2026-04-30 14:44 | 55.66719 | 35.73541 | 13232 ft | 306 kts | 220° |
| 2026-04-30 14:45 | 55.64821 | 35.71843 | 13234 ft | 310 kts | 194° |
| 2026-04-30 14:45 | 55.62656 | 35.71736 | 13541 ft | 317 kts | 167° |
| 2026-04-30 14:45 | 55.60620 | 35.73229 | 14382 ft | 319 kts | 142° |
| 2026-04-30 14:45 | 55.59090 | 35.75976 | 14943 ft | 310 kts | 117° |
| 2026-04-30 14:46 | 55.58405 | 35.79528 | 15242 ft | 308 kts | 93° |
| 2026-04-30 14:46 | 55.58404 | 35.83301 | 15243 ft | 306 kts | 83° |
| 2026-04-30 14:46 | 55.58539 | 35.87040 | 15225 ft | 303 kts | 82° |
| 2026-04-30 14:46 | 55.58693 | 35.90735 | 15226 ft | 301 kts | 82° |
| 2026-04-30 14:47 | 55.58845 | 35.94419 | 15217 ft | 300 kts | 82° |
| 2026-04-30 14:47 | 55.58990 | 35.98088 | 15219 ft | 299 kts | 82° |
| 2026-04-30 14:47 | 55.59125 | 36.01705 | 15224 ft | 299 kts | 83° |
| 2026-04-30 14:47 | 55.59259 | 36.05420 | 15228 ft | 299 kts | 83° |
| 2026-04-30 14:48 | 55.59389 | 36.09102 | 15224 ft | 301 kts | 83° |
| 2026-04-30 14:48 | 55.59516 | 36.12797 | 15236 ft | 301 kts | 83° |
| 2026-04-30 14:48 | 55.59638 | 36.16454 | 15232 ft | 303 kts | 83° |
| 2026-04-30 14:48 | 55.59760 | 36.20171 | 15230 ft | 303 kts | 83° |
| 2026-04-30 14:49 | 55.59882 | 36.23895 | 15225 ft | 304 kts | 83° |
| 2026-04-30 14:49 | 55.60003 | 36.27632 | 15218 ft | 304 kts | 83° |
| 2026-04-30 14:49 | 55.60122 | 36.31361 | 15211 ft | 304 kts | 83° |
| 2026-04-30 14:49 | 55.60240 | 36.35098 | 15213 ft | 304 kts | 83° |
| 2026-04-30 14:50 | 55.60473 | 36.42564 | 15224 ft | 304 kts | 83° |
| 2026-04-30 14:50 | 55.60588 | 36.46294 | 15225 ft | 304 kts | 84° |
| 2026-04-30 14:51 | 55.60814 | 36.53765 | 15213 ft | 305 kts | 84° |
| 2026-04-30 14:51 | 55.60926 | 36.57508 | 15218 ft | 304 kts | 84° |
| 2026-04-30 14:51 | 55.60890 | 36.64988 | 15189 ft | 310 kts | 104° |
| 2026-04-30 14:52 | 55.59951 | 36.68567 | 15228 ft | 332 kts | 118° |
| 2026-04-30 14:52 | 55.57481 | 36.75635 | 15198 ft | 338 kts | 120° |
| 2026-04-30 14:52 | 55.56228 | 36.79131 | 15196 ft | 335 kts | 120° |
| 2026-04-30 14:53 | 55.53761 | 36.86101 | 15200 ft | 334 kts | 120° |
| 2026-04-30 14:53 | 55.52537 | 36.89593 | 15201 ft | 334 kts | 120° |
| 2026-04-30 14:54 | 55.50087 | 36.96602 | 15200 ft | 336 kts | 120° |
| 2026-04-30 14:54 | 55.47629 | 37.03636 | 15213 ft | 337 kts | 120° |
| 2026-04-30 14:55 | 55.45160 | 37.10675 | 15201 ft | 338 kts | 120° |
| 2026-04-30 14:55 | 55.43823 | 37.14073 | 15186 ft | 340 kts | 133° |
| 2026-04-30 14:55 | 55.39876 | 37.18606 | 15203 ft | 340 kts | 150° |
| 2026-04-30 14:56 | 55.35724 | 37.22613 | 15203 ft | 341 kts | 150° |
| 2026-04-30 14:56 | 55.31585 | 37.26666 | 15205 ft | 340 kts | 150° |
| 2026-04-30 14:57 | 55.29521 | 37.28705 | 15204 ft | 340 kts | 150° |
| 2026-04-30 14:57 | 55.25395 | 37.32787 | 15208 ft | 340 kts | 150° |
| 2026-04-30 14:58 | 55.21500 | 37.37371 | 15205 ft | 337 kts | 129° |
| 2026-04-30 14:58 | 55.20237 | 37.40804 | 15228 ft | 335 kts | 117° |
| 2026-04-30 14:58 | 55.18095 | 37.48046 | 15195 ft | 335 kts | 116° |
| 2026-04-30 14:59 | 55.16727 | 37.52665 | 15204 ft | 336 kts | 116° |
| 2026-04-30 15:00 | 55.13439 | 37.63480 | 15202 ft | 336 kts | 115° |
| 2026-04-30 15:00 | 55.12351 | 37.71443 | 16090 ft | 341 kts | 97° |
| 2026-04-30 15:01 | 55.11590 | 37.79642 | 17212 ft | 344 kts | 98° |
| 2026-04-30 15:01 | 55.11315 | 37.82440 | 17196 ft | 347 kts | 98° |
| 2026-04-30 15:01 | 55.09930 | 37.91808 | 17209 ft | 345 kts | 121° |
| 2026-04-30 15:02 | 55.08378 | 37.95061 | 17706 ft | 352 kts | 133° |
| 2026-04-30 15:02 | 55.06663 | 37.98134 | 18579 ft | 355 kts | 134° |
| 2026-04-30 15:03 | 55.01989 | 38.06390 | 19186 ft | 361 kts | 134° |
| 2026-04-30 15:03 | 54.98514 | 38.12589 | 19199 ft | 356 kts | 134° |
| 2026-04-30 15:04 | 54.95071 | 38.18748 | 19208 ft | 354 kts | 134° |
| 2026-04-30 15:04 | 54.89909 | 38.27970 | 19214 ft | 356 kts | 134° |
| 2026-04-30 15:05 | 54.84772 | 38.37306 | 19196 ft | 358 kts | 125° |
| 2026-04-30 15:06 | 54.82298 | 38.44924 | 20462 ft | 364 kts | 117° |
| 2026-04-30 15:06 | 54.79871 | 38.52691 | 21227 ft | 369 kts | 118° |
| 2026-04-30 15:07 | 54.77360 | 38.60452 | 21215 ft | 369 kts | 120° |
| 2026-04-30 15:07 | 54.73726 | 38.66624 | 21326 ft | 382 kts | 149° |
| 2026-04-30 15:08 | 54.68925 | 38.71543 | 21652 ft | 419 kts | 150° |
| 2026-04-30 15:08 | 54.61222 | 38.79399 | 23429 ft | 433 kts | 150° |
| 2026-04-30 15:09 | 54.56005 | 38.84793 | 24478 ft | 441 kts | 150° |
| 2026-04-30 15:09 | 54.50704 | 38.90271 | 25436 ft | 447 kts | 150° |
| 2026-04-30 15:10 | 54.45319 | 38.95814 | 26276 ft | 455 kts | 150° |
| 2026-04-30 15:11 | 54.36523 | 39.11326 | 27904 ft | 470 kts | 111° |
| 2026-04-30 15:11 | 54.34178 | 39.21862 | 28670 ft | 476 kts | 111° |
| 2026-04-30 15:12 | 54.30395 | 39.37691 | 30029 ft | 478 kts | 112° |
| 2026-04-30 15:13 | 54.27853 | 39.48076 | 30939 ft | 476 kts | 112° |
| 2026-04-30 15:14 | 54.22726 | 39.68998 | 32430 ft | 477 kts | 112° |
| 2026-04-30 15:14 | 54.18845 | 39.84725 | 33524 ft | 478 kts | 112° |
| 2026-04-30 15:16 | 54.12376 | 40.10700 | 35054 ft | 478 kts | 112° |
| 2026-04-30 15:17 | 54.08366 | 40.32294 | 36088 ft | 478 kts | 105° |
| 2026-04-30 15:18 | 54.03675 | 40.59454 | 37336 ft | 479 kts | 107° |
| 2026-04-30 15:19 | 54.00776 | 40.75707 | 38043 ft | 479 kts | 107° |